Time;durP1;ratioP1;P1;durP2;ratioP2;P2;SDS_P1;SDS_P2;PMS_P1;PMS_P2;Temp;Humidity;BMP_temperature;BMP_pressure;BME280_temperature;BME280_humidity;BME280_pressure;Samples;Min_cycle;Max_cycle;Signal;HPM_P1;HPM_P2
2021/07/30 00:00:58;;;;;;;7.10;2.72;;;16.80;85.50;;;;;;5054173;28;20049;-92
2021/07/30 00:03:24;;;;;;;8.00;3.22;;;16.80;86.60;;;;;;5054152;28;20048;-91
2021/07/30 00:05:53;;;;;;;7.53;2.70;;;16.80;84.90;;;;;;5054716;28;20051;-91
2021/07/30 00:08:19;;;;;;;7.55;2.65;;;16.70;85.40;;;;;;5054300;28;20635;-91
2021/07/30 00:10:45;;;;;;;8.75;2.85;;;16.70;85.90;;;;;;5054566;28;20057;-94
2021/07/30 00:13:11;;;;;;;7.90;2.40;;;16.60;85.60;;;;;;5054775;28;20045;-93
2021/07/30 00:15:36;;;;;;;9.38;3.45;;;16.60;85.50;;;;;;5054884;28;20128;-91
2021/07/30 00:18:02;;;;;;;8.13;3.40;;;16.60;85.80;;;;;;5053547;28;20045;-92
2021/07/30 00:20:28;;;;;;;12.90;3.72;;;16.60;85.30;;;;;;5054189;28;20447;-91
2021/07/30 00:22:53;;;;;;;9.38;3.50;;;16.50;85.20;;;;;;5054396;28;20049;-91
2021/07/30 00:25:20;;;;;;;8.27;3.50;;;16.50;86.30;;;;;;5034310;28;20404;-92
2021/07/30 00:27:45;;;;;;;6.85;3.08;;;16.50;86.60;;;;;;5034646;28;20103;-91
2021/07/30 00:30:11;;;;;;;6.70;3.03;;;16.50;85.80;;;;;;5033717;28;20053;-90
2021/07/30 00:32:37;;;;;;;9.70;3.40;;;16.40;85.70;;;;;;5033955;28;20049;-93
2021/07/30 00:35:03;;;;;;;7.57;3.53;;;16.40;85.90;;;;;;5033987;28;20049;-94
2021/07/30 00:37:29;;;;;;;7.57;3.33;;;16.40;86.20;;;;;;5033255;28;20049;-90
2021/07/30 00:39:55;;;;;;;8.02;3.50;;;16.40;85.60;;;;;;5033689;28;20132;-91
2021/07/30 00:42:20;;;;;;;7.57;3.38;;;16.30;86.10;;;;;;5033254;28;20179;-93
2021/07/30 00:44:46;;;;;;;8.57;3.50;;;16.30;86.40;;;;;;5033512;28;20064;-92
2021/07/30 00:47:12;;;;;;;10.00;3.60;;;16.30;86.50;;;;;;5034211;28;20501;-93
2021/07/30 00:49:39;;;;;;;9.15;3.35;;;16.30;86.50;;;;;;5034026;28;20160;-93
2021/07/30 00:52:05;;;;;;;7.57;3.75;;;16.20;86.70;;;;;;5033414;28;20053;-93
2021/07/30 00:54:31;;;;;;;8.95;3.78;;;16.20;86.30;;;;;;5035633;28;20061;-92
2021/07/30 00:56:57;;;;;;;8.23;3.55;;;16.10;86.40;;;;;;5033420;28;20486;-91
2021/07/30 00:59:24;;;;;;;8.18;3.42;;;16.10;86.80;;;;;;5033847;28;20053;-91
2021/07/30 01:01:50;;;;;;;9.40;3.92;;;16.10;87.20;;;;;;5053169;28;20048;-91
2021/07/30 01:04:16;;;;;;;6.25;3.20;;;16.10;87.60;;;;;;5054046;28;20045;-92
2021/07/30 01:06:42;;;;;;;7.43;3.47;;;16.10;87.40;;;;;;5053718;28;20059;-91
2021/07/30 01:09:08;;;;;;;9.25;3.55;;;16.00;87.60;;;;;;5054538;28;20053;-92
2021/07/30 01:11:34;;;;;;;6.82;3.78;;;16.00;87.40;;;;;;5054344;28;20136;-91
2021/07/30 01:14:00;;;;;;;8.18;4.03;;;16.00;87.70;;;;;;5053295;28;20045;-91
2021/07/30 01:16:25;;;;;;;6.38;3.53;;;16.00;87.90;;;;;;5054140;28;20049;-91
2021/07/30 01:18:51;;;;;;;8.27;3.45;;;15.90;88.00;;;;;;5054535;28;20057;-92
2021/07/30 01:21:24;;;;;;;9.93;3.90;;;15.90;88.00;;;;;;5053994;28;20405;-93
2021/07/30 01:23:51;;;;;;;10.02;3.97;;;15.90;88.00;;;;;;5045604;28;20398;-93
2021/07/30 01:26:16;;;;;;;10.00;3.90;;;15.90;87.80;;;;;;5034204;28;20049;-90
2021/07/30 01:28:43;;;;;;;8.60;4.15;;;15.90;86.70;;;;;;5035563;28;20105;-91
2021/07/30 01:31:08;;;;;;;10.10;3.92;;;15.80;86.90;;;;;;5049489;28;20087;-90
2021/07/30 01:33:34;;;;;;;9.88;4.47;;;15.80;86.90;;;;;;5053946;28;20049;-90
2021/07/30 01:36:00;;;;;;;7.25;4.00;;;15.80;86.00;;;;;;5054235;28;20053;-92
2021/07/30 01:38:25;;;;;;;9.80;4.72;;;15.70;86.30;;;;;;5057996;28;20374;-91
2021/07/30 01:40:54;;;;;;;7.63;3.83;;;15.70;86.30;;;;;;5057229;28;20098;-93
2021/07/30 01:43:19;;;;;;;10.48;4.35;;;15.70;87.00;;;;;;5057223;28;20049;-92
2021/07/30 01:45:45;;;;;;;10.50;4.20;;;15.70;86.40;;;;;;5058104;28;20079;-90
2021/07/30 01:48:11;;;;;;;12.35;4.68;;;15.60;87.40;;;;;;5056727;28;20122;-90
2021/07/30 01:50:37;;;;;;;9.10;4.40;;;15.60;86.60;;;;;;5057689;28;20159;-92
2021/07/30 01:53:02;;;;;;;9.57;4.38;;;15.60;87.00;;;;;;5055251;28;20095;-90
2021/07/30 01:55:28;;;;;;;10.63;4.40;;;15.60;87.70;;;;;;5042530;28;20172;-92
2021/07/30 01:57:54;;;;;;;11.70;5.03;;;15.60;87.90;;;;;;5046577;28;20389;-90
2021/07/30 02:00:19;;;;;;;12.07;4.80;;;15.60;87.10;;;;;;5046267;28;20130;-91
2021/07/30 02:02:45;;;;;;;11.13;4.72;;;15.60;86.40;;;;;;5049283;28;20048;-90
2021/07/30 02:05:10;;;;;;;11.45;4.90;;;15.50;86.50;;;;;;5063973;28;20052;-91
2021/07/30 02:07:40;;;;;;;11.23;4.80;;;15.50;86.50;;;;;;5068062;28;20048;-91
2021/07/30 02:10:07;;;;;;;10.55;4.85;;;15.50;86.50;;;;;;5067001;28;20068;-91
2021/07/30 02:14:14;;;;;;;10.63;4.55;;;15.40;86.40;;;;;;5058027;28;20482;-90
2021/07/30 02:15:20;;;;;;;11.30;4.53;;;15.40;87.30;;;;;;5044002;28;20053;-89
2021/07/30 02:17:45;;;;;;;10.25;5.05;;;15.40;87.10;;;;;;5040498;28;20049;-91
2021/07/30 02:20:11;;;;;;;11.60;4.35;;;15.40;87.10;;;;;;5039907;28;20682;-91
2021/07/30 02:22:37;;;;;;;9.82;4.72;;;15.40;87.60;;;;;;5057023;28;20059;-91
2021/07/30 02:25:02;;;;;;;9.10;4.95;;;15.40;87.10;;;;;;5056793;28;20080;-90
2021/07/30 02:27:28;;;;;;;11.25;4.65;;;15.30;87.60;;;;;;5056658;28;20047;-90
2021/07/30 02:29:54;;;;;;;11.23;5.15;;;15.30;87.80;;;;;;5055973;28;20055;-91
2021/07/30 02:32:19;;;;;;;8.82;4.90;;;15.30;88.00;;;;;;5056521;28;20397;-93
2021/07/30 02:34:45;;;;;;;9.95;4.85;;;15.20;87.60;;;;;;5056496;28;20056;-93
2021/07/30 02:37:10;;;;;;;10.95;4.75;;;15.20;88.10;;;;;;5055881;28;20480;-91
2021/07/30 02:39:36;;;;;;;9.02;4.57;;;15.20;87.90;;;;;;5054910;28;20049;-90
2021/07/30 02:42:02;;;;;;;9.25;4.90;;;15.20;88.00;;;;;;5035941;28;20095;-90
2021/07/30 02:44:30;;;;;;;9.90;5.38;;;15.10;88.20;;;;;;5034466;28;20102;-90
2021/07/30 02:46:55;;;;;;;10.07;4.95;;;15.10;87.60;;;;;;5036588;28;20046;-92
2021/07/30 02:49:22;;;;;;;11.80;4.82;;;15.10;87.90;;;;;;5035898;28;20061;-90
2021/07/30 02:51:47;;;;;;;11.90;5.25;;;15.00;87.90;;;;;;5036008;28;20452;-91
2021/07/30 02:54:13;;;;;;;8.73;4.80;;;15.00;88.10;;;;;;5035757;28;20128;-92
2021/07/30 02:56:38;;;;;;;10.40;5.40;;;15.00;88.10;;;;;;5035859;28;20485;-89
2021/07/30 02:59:04;;;;;;;12.43;5.80;;;15.00;88.70;;;;;;5034704;28;20057;-89
2021/07/30 03:01:30;;;;;;;10.65;5.38;;;15.00;87.90;;;;;;5036050;28;20057;-89
2021/07/30 03:03:55;;;;;;;11.05;5.57;;;14.90;88.30;;;;;;5035549;28;20489;-92
2021/07/30 03:06:21;;;;;;;10.43;5.40;;;14.90;88.70;;;;;;5034544;28;20136;-91
2021/07/30 03:08:47;;;;;;;9.55;5.20;;;14.90;88.60;;;;;;5035901;28;20045;-91
2021/07/30 03:11:12;;;;;;;9.85;4.97;;;14.90;89.10;;;;;;5035594;28;20053;-92
2021/07/30 03:13:40;;;;;;;9.35;4.95;;;14.90;89.10;;;;;;5035116;28;20401;-92
2021/07/30 03:16:06;;;;;;;8.98;5.00;;;14.90;89.00;;;;;;5034439;28;20091;-91
2021/07/30 03:18:33;;;;;;;13.65;5.75;;;14.80;88.90;;;;;;5035241;28;20092;-91
2021/07/30 03:20:59;;;;;;;8.63;5.43;;;14.80;88.90;;;;;;5034640;28;20060;-91
2021/07/30 03:23:27;;;;;;;12.00;6.53;;;14.80;89.00;;;;;;5035125;28;20053;-90
2021/07/30 03:25:53;;;;;;;13.60;5.95;;;14.80;88.40;;;;;;5034907;28;20405;-90
2021/07/30 03:28:18;;;;;;;9.70;5.55;;;14.80;88.00;;;;;;5052051;28;20049;-90
2021/07/30 03:30:47;;;;;;;12.10;5.80;;;14.70;88.40;;;;;;5055113;28;20056;-90
2021/07/30 03:33:13;;;;;;;10.57;5.78;;;14.70;88.80;;;;;;5054694;28;20073;-90
2021/07/30 03:35:39;;;;;;;10.60;5.97;;;14.70;88.70;;;;;;5054943;28;20087;-91
2021/07/30 03:38:05;;;;;;;14.55;6.40;;;14.70;88.70;;;;;;5054555;28;20094;-89
2021/07/30 03:40:31;;;;;;;10.68;5.22;;;14.70;88.80;;;;;;5054929;28;20058;-90
2021/07/30 03:42:57;;;;;;;11.18;6.10;;;14.70;88.50;;;;;;5054258;28;20041;-90
2021/07/30 03:45:23;;;;;;;12.63;5.60;;;14.60;88.70;;;;;;5054873;28;20051;-90
2021/07/30 03:47:49;;;;;;;10.25;5.63;;;14.60;88.70;;;;;;5052353;28;20045;-91
2021/07/30 03:50:15;;;;;;;11.77;5.82;;;14.60;88.80;;;;;;5054416;28;20053;-90
2021/07/30 03:52:41;;;;;;;13.10;5.93;;;14.60;88.80;;;;;;5054781;28;20051;-91
2021/07/30 03:55:07;;;;;;;9.50;5.40;;;14.60;87.90;;;;;;5054189;28;20041;-89
2021/07/30 03:57:33;;;;;;;10.77;5.63;;;14.50;88.30;;;;;;5043596;28;20386;-91
2021/07/30 03:59:59;;;;;;;11.57;6.10;;;14.50;87.70;;;;;;5034025;28;20148;-90
2021/07/30 04:02:24;;;;;;;13.48;5.57;;;14.50;88.00;;;;;;5034126;28;20067;-89
2021/07/30 04:04:51;;;;;;;10.88;5.47;;;14.50;87.70;;;;;;5034920;28;20088;-89
2021/07/30 04:07:17;;;;;;;11.23;5.80;;;14.50;87.70;;;;;;5047308;28;20476;-91
2021/07/30 04:09:43;;;;;;;11.18;5.85;;;14.40;87.70;;;;;;5055905;28;20512;-91
2021/07/30 04:12:09;;;;;;;12.68;6.30;;;14.40;88.10;;;;;;5054366;28;20041;-89
2021/07/30 04:14:35;;;;;;;9.88;5.22;;;14.40;88.10;;;;;;5054071;28;20060;-90
2021/07/30 04:17:00;;;;;;;9.73;6.18;;;14.30;87.90;;;;;;5053450;28;20045;-88
2021/07/30 04:19:26;;;;;;;12.52;6.43;;;14.40;88.00;;;;;;5054159;28;20049;-91
2021/07/30 04:21:52;;;;;;;12.25;6.10;;;14.40;88.00;;;;;;5054214;28;20060;-89
2021/07/30 04:24:18;;;;;;;13.10;6.22;;;14.40;88.60;;;;;;5054167;28;20056;-91
2021/07/30 04:26:44;;;;;;;13.13;6.30;;;14.40;88.70;;;;;;5049897;28;20561;-90
2021/07/30 04:29:10;;;;;;;9.55;6.07;;;14.40;88.90;;;;;;5033999;28;20417;-90
2021/07/30 04:31:39;;;;;;;13.23;6.78;;;14.40;89.40;;;;;;5034424;28;20060;-90
2021/07/30 04:34:06;;;;;;;15.13;6.70;;;14.40;89.50;;;;;;5033906;28;20057;-90
2021/07/30 04:36:32;;;;;;;17.70;6.70;;;14.40;89.30;;;;;;5033840;28;20050;-92
2021/07/30 04:38:57;;;;;;;12.57;6.63;;;14.30;89.30;;;;;;5034233;28;20072;-89
2021/07/30 04:41:23;;;;;;;13.07;6.95;;;14.40;89.50;;;;;;5033982;28;20114;-89
2021/07/30 04:43:49;;;;;;;11.43;6.13;;;14.40;89.30;;;;;;5034327;28;20048;-90
2021/07/30 04:46:16;;;;;;;11.68;6.20;;;14.40;89.70;;;;;;5033483;28;20049;-90
2021/07/30 04:48:44;;;;;;;15.93;6.63;;;14.30;89.60;;;;;;5034289;28;20101;-91
2021/07/30 04:51:14;;;;;;;11.90;6.30;;;14.30;90.10;;;;;;5033360;28;20058;-89
2021/07/30 04:53:40;;;;;;;10.48;5.93;;;14.40;89.70;;;;;;5034136;28;20046;-91
2021/07/30 04:56:05;;;;;;;12.27;5.78;;;14.30;89.20;;;;;;5033962;28;20148;-89
2021/07/30 04:58:31;;;;;;;10.25;6.00;;;14.40;89.30;;;;;;5033840;28;20049;-91
2021/07/30 05:00:57;;;;;;;12.93;6.65;;;14.30;89.10;;;;;;5033760;28;20080;-89
2021/07/30 05:03:23;;;;;;;13.75;6.43;;;14.30;89.40;;;;;;5034245;28;20056;-91
2021/07/30 05:05:48;;;;;;;12.90;6.63;;;14.40;89.40;;;;;;5033827;28;20077;-88
2021/07/30 05:08:23;;;;;;;11.25;6.03;;;14.40;89.50;;;;;;5033834;28;20478;-91
2021/07/30 05:10:50;;;;;;;11.55;6.32;;;14.40;89.40;;;;;;5036599;28;20111;-91
2021/07/30 05:13:20;;;;;;;10.43;5.90;;;14.40;89.40;;;;;;5045146;28;20044;-90
2021/07/30 05:15:45;;;;;;;10.52;6.43;;;14.40;90.00;;;;;;5057510;28;20045;-93
2021/07/30 05:18:11;;;;;;;17.75;6.30;;;14.40;90.00;;;;;;5056921;28;20044;-92
2021/07/30 05:20:38;;;;;;;13.70;6.05;;;14.40;89.90;;;;;;5057748;28;20067;-90
2021/07/30 05:23:05;;;;;;;13.02;6.53;;;14.40;89.80;;;;;;5057550;28;20094;-92
2021/07/30 05:25:33;;;;;;;14.63;6.72;;;14.40;89.70;;;;;;5049915;28;20163;-88
2021/07/30 05:27:58;;;;;;;11.02;6.18;;;14.40;89.90;;;;;;5053365;28;20123;-92
2021/07/30 05:30:37;;;;;;;15.32;6.35;;;14.50;89.80;;;;;;5055098;28;20042;-89
2021/07/30 05:33:03;;;;;;;14.15;6.97;;;14.50;89.90;;;;;;5050801;28;20041;-89
2021/07/30 05:35:28;;;;;;;14.07;6.38;;;14.50;89.90;;;;;;5051031;28;20076;-89
2021/07/30 05:37:54;;;;;;;13.07;5.90;;;14.50;90.00;;;;;;5054987;28;20048;-92
2021/07/30 05:40:19;;;;;;;12.60;6.60;;;14.50;90.10;;;;;;5056523;28;20087;-94
2021/07/30 05:42:46;;;;;;;13.45;6.45;;;14.60;90.10;;;;;;5061536;28;20194;-93
2021/07/30 05:45:12;;;;;;;13.27;6.40;;;14.60;90.00;;;;;;5063695;28;20409;-95
2021/07/30 05:47:37;;;;;;;10.85;5.75;;;14.70;90.10;;;;;;5065928;28;20053;-95
2021/07/30 05:50:03;;;;;;;12.85;6.40;;;14.70;90.00;;;;;;5058438;28;20060;-92
2021/07/30 05:52:30;;;;;;;12.52;6.47;;;14.70;90.00;;;;;;5064156;28;20053;-95
2021/07/30 05:54:57;;;;;;;13.02;5.82;;;14.80;90.10;;;;;;5066038;28;20049;-93
2021/07/30 05:57:23;;;;;;;16.83;6.72;;;14.80;90.10;;;;;;5053236;28;20064;-94
2021/07/30 05:59:48;;;;;;;15.93;5.68;;;14.90;90.30;;;;;;5043902;28;20477;-95
2021/07/30 06:02:14;;;;;;;12.63;6.10;;;14.90;90.10;;;;;;5039561;28;20142;-95
2021/07/30 06:04:40;;;;;;;11.93;5.85;;;15.00;90.10;;;;;;5040300;28;20049;-94
2021/07/30 06:07:05;;;;;;;11.85;6.10;;;15.00;89.70;;;;;;5038721;28;20049;-91
2021/07/30 06:09:31;;;;;;;13.38;5.70;;;15.10;89.90;;;;;;5038284;28;20063;-92
2021/07/30 06:11:58;;;;;;;16.15;6.50;;;15.10;89.80;;;;;;5039662;28;20056;-94
2021/07/30 06:14:24;;;;;;;9.90;5.25;;;15.10;90.30;;;;;;5039422;28;20045;-95
2021/07/30 06:16:49;;;;;;;13.10;6.03;;;15.20;90.00;;;;;;5038505;28;20057;-95
2021/07/30 06:19:15;;;;;;;16.20;5.95;;;15.20;90.00;;;;;;5037954;28;20076;-96
2021/07/30 06:21:41;;;;;;;13.75;6.13;;;15.30;90.00;;;;;;5037545;28;20050;-93
2021/07/30 06:24:06;;;;;;;12.32;5.47;;;15.30;89.90;;;;;;5037679;28;20549;-94
2021/07/30 06:26:32;;;;;;;14.73;6.20;;;15.40;89.40;;;;;;5054547;28;20049;-93
2021/07/30 06:28:57;;;;;;;17.90;6.47;;;15.40;89.50;;;;;;5060005;28;20203;-94
2021/07/30 06:31:23;;;;;;;12.65;5.97;;;15.40;90.00;;;;;;5061542;28;20049;-94
2021/07/30 06:33:49;;;;;;;10.18;5.68;;;15.50;89.60;;;;;;5060992;28;20045;-93
2021/07/30 06:36:17;;;;;;;13.20;6.22;;;15.50;89.90;;;;;;5066178;28;20408;-95
2021/07/30 06:38:43;;;;;;;12.65;5.65;;;15.60;89.60;;;;;;5062707;28;20045;-96
2021/07/30 06:41:13;;;;;;;15.90;6.15;;;15.70;89.40;;;;;;5059167;28;20071;-93
2021/07/30 06:43:38;;;;;;;19.67;6.45;;;15.80;89.70;;;;;;5058234;28;20056;-93
2021/07/30 06:46:04;;;;;;;15.13;6.40;;;15.80;90.00;;;;;;5057624;28;20041;-92
2021/07/30 06:48:30;;;;;;;14.80;6.30;;;15.90;90.00;;;;;;5043116;28;20062;-91
2021/07/30 06:50:56;;;;;;;16.05;6.10;;;16.00;90.10;;;;;;5039065;28;20054;-94
2021/07/30 06:53:25;;;;;;;12.80;5.68;;;16.10;90.00;;;;;;5041928;28;20057;-95
2021/07/30 06:55:50;;;;;;;14.30;6.28;;;16.20;89.50;;;;;;5043738;28;20050;-95
2021/07/30 06:58:16;;;;;;;15.93;7.00;;;16.30;89.40;;;;;;5059097;28;20088;-91
2021/07/30 07:00:42;;;;;;;16.58;5.90;;;16.30;89.70;;;;;;5065702;28;20044;-95
2021/07/30 07:03:09;;;;;;;16.05;6.65;;;16.40;90.20;;;;;;5059234;28;20053;-94
2021/07/30 07:05:34;;;;;;;18.20;6.40;;;16.40;89.30;;;;;;5056449;28;20053;-91
2021/07/30 07:08:01;;;;;;;13.02;5.95;;;16.50;88.90;;;;;;5056677;28;20068;-89
2021/07/30 07:10:27;;;;;;;17.92;6.85;;;16.60;88.80;;;;;;5056384;28;20133;-91
2021/07/30 07:12:52;;;;;;;16.65;7.15;;;16.70;88.80;;;;;;5046150;28;20128;-89
2021/07/30 07:15:18;;;;;;;14.27;6.03;;;16.80;88.60;;;;;;5045065;28;20048;-87
2021/07/30 07:17:43;;;;;;;14.55;6.25;;;16.80;89.00;;;;;;5053659;28;20041;-89
2021/07/30 07:20:10;;;;;;;11.40;5.88;;;16.90;88.10;;;;;;5048361;28;20045;-87
2021/07/30 07:22:38;;;;;;;12.93;6.03;;;17.00;87.90;;;;;;5053461;28;20068;-91
2021/07/30 07:25:04;;;;;;;11.85;5.50;;;17.00;87.90;;;;;;5052729;28;20077;-89
2021/07/30 07:27:29;;;;;;;14.25;6.72;;;17.10;87.90;;;;;;5053598;28;20118;-88
2021/07/30 07:29:55;;;;;;;14.10;6.00;;;17.10;87.70;;;;;;5052802;28;20512;-89
2021/07/30 07:32:21;;;;;;;14.27;6.15;;;17.20;87.50;;;;;;5052502;28;20045;-89
2021/07/30 07:34:46;;;;;;;15.45;6.05;;;17.20;87.30;;;;;;5052448;28;20048;-91
2021/07/30 07:37:12;;;;;;;14.88;6.38;;;17.30;87.20;;;;;;5052918;28;20051;-88
2021/07/30 07:39:40;;;;;;;13.02;5.68;;;17.40;87.10;;;;;;5052378;28;20048;-88
2021/07/30 07:42:05;;;;;;;14.10;5.90;;;17.40;87.10;;;;;;5053294;28;20052;-87
2021/07/30 07:44:31;;;;;;;16.30;6.53;;;17.50;87.00;;;;;;5053152;28;20143;-87
2021/07/30 07:46:58;;;;;;;17.55;6.50;;;17.50;87.40;;;;;;5049176;28;20582;-87
2021/07/30 07:49:24;;;;;;;14.27;6.05;;;17.60;87.70;;;;;;5052456;28;20049;-87
2021/07/30 07:51:50;;;;;;;13.48;6.18;;;17.70;87.20;;;;;;5053115;28;20076;-88
2021/07/30 07:54:16;;;;;;;16.73;6.35;;;17.70;87.20;;;;;;5048676;28;20055;-88
2021/07/30 07:56:42;;;;;;;14.27;5.80;;;17.80;86.70;;;;;;5046551;28;20045;-89
2021/07/30 07:59:08;;;;;;;14.60;6.13;;;17.80;86.40;;;;;;5052449;28;20081;-87
2021/07/30 08:01:33;;;;;;;18.05;6.22;;;17.90;86.40;;;;;;5052125;28;20079;-91
2021/07/30 08:04:00;;;;;;;16.35;5.90;;;18.00;86.50;;;;;;5052985;28;20041;-91
2021/07/30 08:06:25;;;;;;;16.30;6.38;;;18.00;86.40;;;;;;5053281;28;20072;-90
2021/07/30 08:08:51;;;;;;;14.52;5.93;;;18.10;86.70;;;;;;5052187;28;20075;-88
2021/07/30 08:11:17;;;;;;;13.57;5.60;;;18.20;86.20;;;;;;5052440;28;20551;-89
2021/07/30 08:13:43;;;;;;;17.77;6.72;;;18.30;85.90;;;;;;5052747;28;20055;-88
2021/07/30 08:16:09;;;;;;;16.33;6.10;;;18.30;85.50;;;;;;5051678;28;20044;-88
2021/07/30 08:18:35;;;;;;;15.27;5.50;;;18.40;85.20;;;;;;5050080;28;20049;-88
2021/07/30 08:21:01;;;;;;;14.02;5.60;;;18.50;85.20;;;;;;5047749;28;20061;-89
2021/07/30 08:23:28;;;;;;;15.48;6.03;;;18.50;85.00;;;;;;5047563;28;20048;-89
2021/07/30 08:25:54;;;;;;;14.73;5.85;;;18.60;84.80;;;;;;5039560;28;20053;-88
2021/07/30 08:28:19;;;;;;;15.40;5.75;;;18.70;84.60;;;;;;5033201;28;20173;-90
2021/07/30 08:30:45;;;;;;;14.80;5.85;;;18.80;83.80;;;;;;5036415;28;20053;-87
2021/07/30 08:33:11;;;;;;;13.65;6.28;;;18.90;83.60;;;;;;5044409;28;20048;-86
2021/07/30 08:35:36;;;;;;;14.43;5.72;;;18.90;83.60;;;;;;5043612;28;20049;-86
2021/07/30 08:38:02;;;;;;;13.50;5.47;;;19.00;83.60;;;;;;5046644;28;20044;-86
2021/07/30 08:40:32;;;;;;;13.50;5.32;;;19.00;83.10;;;;;;5044396;28;20136;-87
2021/07/30 08:42:58;;;;;;;11.43;5.15;;;19.10;82.30;;;;;;5033190;28;20107;-87
2021/07/30 08:45:23;;;;;;;15.23;5.80;;;19.10;82.40;;;;;;5034050;28;20053;-88
2021/07/30 08:47:50;;;;;;;16.95;5.60;;;19.20;82.20;;;;;;5048966;28;20132;-85
2021/07/30 08:50:16;;;;;;;13.70;5.20;;;19.30;82.00;;;;;;5056569;28;20057;-88
2021/07/30 08:52:43;;;;;;;13.48;4.82;;;19.30;81.20;;;;;;5057249;28;20083;-86
2021/07/30 08:55:13;;;;;;;15.55;5.07;;;19.30;80.80;;;;;;5057563;28;20053;-88
2021/07/30 08:57:42;;;;;;;16.38;4.78;;;19.40;80.50;;;;;;5058328;28;20056;-86
2021/07/30 09:00:12;;;;;;;13.60;4.47;;;19.40;80.30;;;;;;5059531;28;20060;-90
2021/07/30 09:02:38;;;;;;;13.15;4.88;;;19.50;79.70;;;;;;5063454;28;20492;-93
2021/07/30 09:05:25;;;;;;;14.80;5.10;;;19.50;80.30;;;;;;5058684;28;20044;-93
2021/07/30 09:07:51;;;;;;;11.65;4.53;;;19.50;79.10;;;;;;5058558;28;20060;-91
2021/07/30 09:10:27;;;;;;;11.75;4.55;;;19.60;79.70;;;;;;5055339;28;20048;-90
2021/07/30 09:13:12;;;;;;;13.75;4.20;;;19.60;80.10;;;;;;5038852;28;20041;-91
2021/07/30 09:15:37;;;;;;;12.73;4.40;;;19.70;78.90;;;;;;5059452;28;20073;-92
2021/07/30 09:18:04;;;;;;;13.15;4.70;;;19.70;79.10;;;;;;5058618;28;20068;-92
2021/07/30 09:20:29;;;;;;;15.57;4.60;;;19.80;79.20;;;;;;5058977;28;20199;-92
2021/07/30 09:22:55;;;;;;;10.15;4.55;;;19.80;77.80;;;;;;5058023;28;20091;-91
2021/07/30 09:25:35;;;;;;;11.00;4.25;;;19.90;78.10;;;;;;5057690;28;20049;-93
2021/07/30 09:28:05;;;;;;;10.70;4.05;;;19.90;77.70;;;;;;5057601;28;20060;-91
2021/07/30 09:30:32;;;;;;;15.25;4.65;;;19.90;77.00;;;;;;5038219;28;20057;-93
2021/07/30 09:32:58;;;;;;;10.93;4.57;;;20.00;78.10;;;;;;5038160;28;20476;-92
2021/07/30 09:35:23;;;;;;;9.82;4.30;;;20.00;77.80;;;;;;5037907;28;20056;-87
2021/07/30 09:38:15;;;;;;;11.68;4.28;;;20.10;77.80;;;;;;5049895;28;20049;-94
2021/07/30 09:40:41;;;;;;;13.55;4.72;;;20.10;76.00;;;;;;5046237;28;20045;-87
2021/07/30 09:43:25;;;;;;;10.65;4.53;;;20.20;76.60;;;;;;5054009;28;20056;-94
2021/07/30 09:46:11;;;;;;;10.63;4.50;;;20.20;77.00;;;;;;5056585;28;20052;-91
2021/07/30 09:48:52;;;;;;;11.50;5.03;;;20.20;76.30;;;;;;5055029;28;20049;-89
2021/07/30 09:51:19;;;;;;;13.48;4.93;;;20.20;77.00;;;;;;5039156;28;20054;-88
2021/07/30 09:53:46;;;;;;;13.00;5.20;;;20.30;77.50;;;;;;5036168;28;20401;-89
2021/07/30 09:56:14;;;;;;;13.00;5.68;;;20.40;77.60;;;;;;5036601;28;20050;-90
2021/07/30 09:58:41;;;;;;;8.88;4.95;;;20.40;78.20;;;;;;5036481;28;20080;-89
2021/07/30 10:01:09;;;;;;;10.98;4.50;;;20.50;77.60;;;;;;5035628;28;20592;-89
2021/07/30 10:03:37;;;;;;;13.68;7.07;;;20.50;76.40;;;;;;5036450;28;20068;-89
2021/07/30 10:06:04;;;;;;;10.85;4.97;;;20.60;75.30;;;;;;5036238;28;20045;-91
2021/07/30 10:08:30;;;;;;;10.75;4.43;;;20.60;73.70;;;;;;5035879;28;20049;-90
2021/07/30 10:10:56;;;;;;;10.82;4.43;;;20.60;74.40;;;;;;5038032;28;20064;-92
2021/07/30 10:13:35;;;;;;;8.50;4.25;;;20.70;74.40;;;;;;5036150;28;20386;-88
2021/07/30 10:16:01;;;;;;;11.95;4.50;;;20.70;73.40;;;;;;5035571;28;20049;-87
2021/07/30 10:18:30;;;;;;;11.32;4.25;;;20.80;74.30;;;;;;5036085;28;20046;-90
2021/07/30 10:21:01;;;;;;;15.38;5.13;;;20.80;73.10;;;;;;5035815;28;20073;-89
2021/07/30 10:23:27;;;;;;;8.68;4.28;;;20.80;73.30;;;;;;5037273;28;20045;-90
2021/07/30 10:25:56;;;;;;;9.57;3.85;;;20.80;75.10;;;;;;5036464;28;20057;-91
2021/07/30 10:28:28;;;;;;;10.00;4.25;;;20.90;74.30;;;;;;5050354;28;20049;-90
2021/07/30 10:31:06;;;;;;;11.68;4.15;;;20.90;74.80;;;;;;5054196;28;20041;-93
2021/07/30 10:33:33;;;;;;;10.60;4.22;;;21.00;73.90;;;;;;5054112;28;20049;-92
2021/07/30 10:36:01;;;;;;;14.02;4.35;;;21.00;73.70;;;;;;5056072;28;20072;-89
2021/07/30 10:38:27;;;;;;;11.23;4.40;;;21.10;73.10;;;;;;5057641;28;20045;-92
2021/07/30 10:41:06;;;;;;;10.73;4.10;;;21.10;73.20;;;;;;5055695;28;20055;-88
2021/07/30 10:43:52;;;;;;;10.68;3.72;;;21.10;72.60;;;;;;5055265;28;20503;-90
2021/07/30 10:46:19;;;;;;;8.02;3.30;;;21.10;73.00;;;;;;5055185;28;20501;-89
2021/07/30 10:48:45;;;;;;;8.88;3.78;;;21.20;73.50;;;;;;5055247;28;20053;-88
2021/07/30 10:51:27;;;;;;;11.07;3.80;;;21.30;73.90;;;;;;5054596;28;20133;-87
2021/07/30 10:53:56;;;;;;;9.30;3.85;;;21.30;73.90;;;;;;5055395;28;20084;-89
2021/07/30 10:56:22;;;;;;;11.68;4.05;;;21.30;74.30;;;;;;5054712;28;20473;-90
2021/07/30 10:58:50;;;;;;;8.73;3.50;;;21.40;72.40;;;;;;5055649;28;20084;-89
2021/07/30 11:01:19;;;;;;;10.82;3.80;;;21.40;71.80;;;;;;5055043;28;20093;-88
2021/07/30 11:03:51;;;;;;;9.07;3.63;;;21.50;72.50;;;;;;5055020;28;20481;-91
2021/07/30 11:06:24;;;;;;;12.70;4.13;;;21.50;72.50;;;;;;5055025;28;20053;-89
2021/07/30 11:08:58;;;;;;;10.40;3.65;;;21.50;71.90;;;;;;5055399;28;20133;-92
2021/07/30 11:11:45;;;;;;;10.30;3.65;;;21.50;72.30;;;;;;5052491;28;20052;-90
2021/07/30 11:14:15;;;;;;;8.60;3.80;;;21.60;72.00;;;;;;5054930;28;20057;-91
2021/07/30 11:16:45;;;;;;;11.60;3.95;;;21.60;72.00;;;;;;5055083;28;20549;-91
2021/07/30 11:19:12;;;;;;;9.63;3.60;;;21.70;71.70;;;;;;5053645;28;20073;-90
2021/07/30 11:21:38;;;;;;;9.07;3.80;;;21.80;71.30;;;;;;5054915;28;20136;-89
2021/07/30 11:24:05;;;;;;;11.65;4.00;;;21.80;71.70;;;;;;5036168;28;20069;-88
2021/07/30 11:26:32;;;;;;;11.23;3.90;;;21.90;72.00;;;;;;5035018;28;20045;-90
2021/07/30 11:29:03;;;;;;;8.93;3.90;;;21.90;72.50;;;;;;5034402;28;20440;-91
2021/07/30 11:31:30;;;;;;;12.30;3.70;;;22.00;73.50;;;;;;5034361;28;20083;-91
2021/07/30 11:33:56;;;;;;;8.20;3.22;;;22.10;72.50;;;;;;5035155;28;20052;-90
2021/07/30 11:36:22;;;;;;;9.50;3.42;;;22.20;73.30;;;;;;5035226;28;20081;-88
2021/07/30 11:38:59;;;;;;;10.35;3.10;;;22.20;73.10;;;;;;5036226;28;20074;-90
2021/07/30 11:41:24;;;;;;;9.95;3.38;;;22.30;70.90;;;;;;5035923;28;20052;-89
2021/07/30 11:44:06;;;;;;;7.53;3.40;;;22.30;70.50;;;;;;5034406;28;20058;-88
2021/07/30 11:46:33;;;;;;;10.93;3.17;;;22.40;71.40;;;;;;5034059;28;20049;-91
2021/07/30 11:49:01;;;;;;;6.40;2.88;;;22.40;70.90;;;;;;5034684;28;20076;-90
2021/07/30 11:51:27;;;;;;;8.50;2.95;;;22.50;72.20;;;;;;5035296;28;20064;-90
2021/07/30 11:53:54;;;;;;;7.25;2.85;;;22.50;70.80;;;;;;5034114;28;20049;-89
2021/07/30 11:56:21;;;;;;;9.13;2.95;;;22.50;71.00;;;;;;5034813;28;20084;-89
2021/07/30 11:59:03;;;;;;;8.60;2.88;;;22.60;70.80;;;;;;5034441;28;20562;-92
2021/07/30 12:01:30;;;;;;;9.52;3.05;;;22.50;69.90;;;;;;5034184;28;20049;-91
2021/07/30 12:04:13;;;;;;;7.70;2.50;;;22.60;69.50;;;;;;5034300;28;20497;-89
2021/07/30 12:06:44;;;;;;;8.48;2.72;;;22.60;69.80;;;;;;5033643;28;20053;-90
2021/07/30 12:09:12;;;;;;;8.15;2.70;;;22.60;71.80;;;;;;5034121;28;20149;-90
2021/07/30 12:11:42;;;;;;;10.30;2.78;;;22.70;70.90;;;;;;5039451;28;20476;-89
2021/07/30 12:14:09;;;;;;;8.88;2.72;;;22.70;69.80;;;;;;5053185;28;20044;-91
2021/07/30 12:16:35;;;;;;;6.35;2.78;;;22.70;70.50;;;;;;5053746;28;20055;-89
2021/07/30 12:19:01;;;;;;;9.48;3.10;;;22.80;71.00;;;;;;5053781;28;20519;-88
2021/07/30 12:21:26;;;;;;;11.35;2.88;;;22.90;71.30;;;;;;5053612;28;20132;-88
2021/07/30 12:24:02;;;;;;;10.13;3.10;;;22.90;70.40;;;;;;5043213;28;20501;-88
2021/07/30 12:26:29;;;;;;;9.10;3.05;;;22.90;70.00;;;;;;5053734;28;20055;-86
2021/07/30 12:28:55;;;;;;;9.20;3.30;;;23.00;70.20;;;;;;5053355;28;20048;-91
2021/07/30 12:31:22;;;;;;;9.35;3.22;;;23.00;70.50;;;;;;5053724;28;20404;-86
2021/07/30 12:33:48;;;;;;;10.35;3.00;;;23.00;69.20;;;;;;5048971;28;20128;-88
2021/07/30 12:36:15;;;;;;;8.68;2.90;;;23.00;71.40;;;;;;5050922;28;20053;-87
2021/07/30 12:38:58;;;;;;;9.05;2.22;;;23.00;70.10;;;;;;5045733;28;20041;-84
2021/07/30 12:41:30;;;;;;;6.65;2.40;;;23.00;68.80;;;;;;5049168;28;20056;-85